createdAt,value
2022-09-15T00:00:57.191Z,19.40
2022-09-15T00:03:24.099Z,19.40
2022-09-15T00:05:53.681Z,19.40
2022-09-15T00:08:21.407Z,19.40
2022-09-15T00:10:51.284Z,19.40
2022-09-15T00:13:18.577Z,19.40
2022-09-15T00:15:45.378Z,19.40
2022-09-15T00:18:12.515Z,19.40
2022-09-15T00:20:44.092Z,19.40
2022-09-15T00:23:12.885Z,19.40
2022-09-15T00:25:48.577Z,19.40
2022-09-15T00:28:16.859Z,19.30
2022-09-15T00:30:46.819Z,19.30
2022-09-15T00:33:15.107Z,19.30
2022-09-15T00:35:44.381Z,19.30
2022-09-15T00:38:12.600Z,19.30
2022-09-15T00:40:50.063Z,19.30
2022-09-15T00:43:18.581Z,19.30
2022-09-15T00:45:45.714Z,19.40
2022-09-15T00:48:17.263Z,19.40
2022-09-15T00:50:49.286Z,19.40
2022-09-15T00:53:17.630Z,19.40
2022-09-15T00:55:49.809Z,19.40
2022-09-15T00:58:22.983Z,19.40
2022-09-15T01:00:56.527Z,19.40
2022-09-15T01:03:25.301Z,19.50
2022-09-15T01:05:56.514Z,19.50
2022-09-15T01:08:36.399Z,19.60
2022-09-15T01:11:03.616Z,19.60
2022-09-15T01:13:30.691Z,19.50
2022-09-15T01:16:15.486Z,19.50
2022-09-15T01:19:03.168Z,19.50
2022-09-15T01:21:38.827Z,19.50
2022-09-15T01:24:44.931Z,19.40
2022-09-15T01:27:43.144Z,19.40
2022-09-15T01:30:15.477Z,19.40
2022-09-15T01:33:20.035Z,19.40
2022-09-15T01:35:57.530Z,19.40
2022-09-15T01:38:51.668Z,19.40
2022-09-15T01:41:45.266Z,19.40
2022-09-15T01:44:24.840Z,19.30
2022-09-15T01:47:13.798Z,19.30
2022-09-15T01:49:45.045Z,19.30
2022-09-15T01:52:14.550Z,19.30
2022-09-15T01:54:48.836Z,19.20
2022-09-15T01:57:21.666Z,19.20
2022-09-15T01:59:50.012Z,19.20
2022-09-15T02:02:35.626Z,19.20
2022-09-15T02:05:06.298Z,19.30
2022-09-15T02:07:51.811Z,19.30
2022-09-15T02:10:35.275Z,19.20
2022-09-15T02:13:17.135Z,19.20
2022-09-15T02:15:50.512Z,19.20
2022-09-15T02:18:35.409Z,19.20
2022-09-15T02:21:12.700Z,19.30
2022-09-15T02:23:43.940Z,19.20
2022-09-15T02:26:16.816Z,19.20
2022-09-15T02:28:46.012Z,19.30
2022-09-15T02:31:16.477Z,19.30
2022-09-15T02:33:49.660Z,19.30
2022-09-15T02:36:19.854Z,19.20
2022-09-15T02:39:05.001Z,19.20
2022-09-15T02:41:33.926Z,19.20
2022-09-15T02:44:00.713Z,19.20
2022-09-15T02:46:28.266Z,19.10
2022-09-15T02:48:54.952Z,19.10
2022-09-15T02:51:21.849Z,19.10
2022-09-15T02:53:48.884Z,19.10
2022-09-15T02:56:16.562Z,19.00
2022-09-15T02:58:43.930Z,19.00
2022-09-15T03:01:15.714Z,18.90
2022-09-15T03:03:44.094Z,19.00
2022-09-15T03:06:18.149Z,18.90
2022-09-15T03:08:49.684Z,18.90
2022-09-15T03:11:17.960Z,18.90
2022-09-15T03:13:45.182Z,18.90
2022-09-15T03:16:14.203Z,18.90
2022-09-15T03:18:41.723Z,19.00
2022-09-15T03:21:11.620Z,18.90
2022-09-15T03:23:38.700Z,18.90
2022-09-15T03:26:06.202Z,18.90
2022-09-15T03:28:32.885Z,18.80
2022-09-15T03:30:59.810Z,18.90
2022-09-15T03:33:26.567Z,18.80
2022-09-15T03:35:53.694Z,18.80
2022-09-15T03:38:20.807Z,18.80
2022-09-15T03:40:59.302Z,18.80
2022-09-15T03:43:27.136Z,18.70
2022-09-15T03:45:55.119Z,18.80
2022-09-15T03:48:22.876Z,18.70
2022-09-15T03:50:50.331Z,18.70
2022-09-15T03:53:17.825Z,18.70
2022-09-15T03:55:45.612Z,18.70
2022-09-15T03:58:13.573Z,18.70
2022-09-15T04:00:41.384Z,18.70
2022-09-15T04:03:08.853Z,18.70
2022-09-15T04:05:36.048Z,18.60
2022-09-15T04:08:02.886Z,18.60
2022-09-15T04:10:29.582Z,18.60
2022-09-15T04:12:56.460Z,18.70
2022-09-15T04:15:23.722Z,18.70
2022-09-15T04:17:50.566Z,18.70
2022-09-15T04:20:17.564Z,18.70
2022-09-15T04:22:45.181Z,18.80
2022-09-15T04:25:12.145Z,18.80
2022-09-15T04:27:38.928Z,18.70
2022-09-15T04:30:07.714Z,18.80
2022-09-15T04:32:35.696Z,18.80
2022-09-15T04:35:03.952Z,18.80
2022-09-15T04:37:31.137Z,18.80
2022-09-15T04:39:58.190Z,18.80
2022-09-15T04:42:25.075Z,18.80
2022-09-15T04:44:51.879Z,18.80
2022-09-15T04:47:19.261Z,18.80
2022-09-15T04:49:46.750Z,18.90
2022-09-15T04:52:13.488Z,18.90
2022-09-15T04:54:40.245Z,18.90
2022-09-15T04:57:07.138Z,18.90
2022-09-15T04:59:34.019Z,18.80
2022-09-15T05:02:00.804Z,18.80
2022-09-15T05:04:27.773Z,18.80
2022-09-15T05:06:54.458Z,18.80
2022-09-15T05:09:21.258Z,18.80
2022-09-15T05:11:47.922Z,18.90
2022-09-15T05:14:14.648Z,18.90
2022-09-15T05:16:41.452Z,18.90
2022-09-15T05:19:09.928Z,19.00
2022-09-15T05:21:36.609Z,18.90
2022-09-15T05:24:03.584Z,18.90
2022-09-15T05:26:30.697Z,18.90
2022-09-15T05:28:57.876Z,19.00
2022-09-15T05:31:27.355Z,19.00
2022-09-15T05:33:54.598Z,19.10
2022-09-15T05:36:25.315Z,19.10
2022-09-15T05:38:59.014Z,19.00
2022-09-15T05:41:27.349Z,19.00
2022-09-15T05:43:56.960Z,19.10
2022-09-15T05:46:26.154Z,19.20
2022-09-15T05:48:56.362Z,19.20
2022-09-15T05:51:23.295Z,19.30
2022-09-15T05:53:50.967Z,19.30
2022-09-15T05:56:18.413Z,19.40
2022-09-15T05:58:47.465Z,19.40
2022-09-15T06:01:19.890Z,19.40
2022-09-15T06:03:47.981Z,19.30
2022-09-15T06:06:15.341Z,19.40
2022-09-15T06:08:45.803Z,19.40
2022-09-15T06:11:20.559Z,19.50
2022-09-15T06:13:47.897Z,19.50
2022-09-15T06:16:19.372Z,19.50
2022-09-15T06:18:48.185Z,19.60
2022-09-15T06:21:23.689Z,19.60
2022-09-15T06:23:59.083Z,19.60
2022-09-15T06:26:27.167Z,19.60
2022-09-15T06:29:01.962Z,19.60
2022-09-15T06:31:31.507Z,19.60
2022-09-15T06:33:59.112Z,19.60
2022-09-15T06:36:28.491Z,19.60
2022-09-15T06:38:55.865Z,19.50
2022-09-15T06:41:22.648Z,19.50
2022-09-15T06:43:49.646Z,19.70
2022-09-15T06:46:19.074Z,19.60
2022-09-15T06:48:48.511Z,19.80
2022-09-15T06:51:17.978Z,19.90
2022-09-15T06:53:45.572Z,20.00
2022-09-15T06:56:22.783Z,20.10
2022-09-15T06:58:49.983Z,20.00
2022-09-15T07:01:22.523Z,19.90
2022-09-15T07:03:49.702Z,19.90
2022-09-15T07:06:16.730Z,19.90
2022-09-15T07:08:44.187Z,19.80
2022-09-15T07:11:11.300Z,19.80
2022-09-15T07:13:38.573Z,19.90
2022-09-15T07:16:07.847Z,19.90
2022-09-15T07:18:39.703Z,20.00
2022-09-15T07:21:14.360Z,20.00
2022-09-15T07:23:41.995Z,20.00
2022-09-15T07:26:16.480Z,20.00
2022-09-15T07:28:45.714Z,20.10
2022-09-15T07:31:15.414Z,20.00
2022-09-15T07:33:42.413Z,20.20
2022-09-15T07:36:10.069Z,20.30
2022-09-15T07:38:41.552Z,20.30
2022-09-15T07:41:11.911Z,20.40
2022-09-15T07:43:39.104Z,20.30
2022-09-15T07:46:06.925Z,20.30
2022-09-15T07:48:33.819Z,20.40
2022-09-15T07:51:00.497Z,20.40
2022-09-15T07:53:30.836Z,20.50
2022-09-15T07:55:57.708Z,20.50
2022-09-15T07:58:25.165Z,20.50
2022-09-15T08:00:52.192Z,20.50
2022-09-15T08:03:18.935Z,20.60
2022-09-15T08:05:46.207Z,20.80
2022-09-15T08:08:13.192Z,20.90
2022-09-15T08:10:41.254Z,21.10
2022-09-15T08:13:08.520Z,21.30
2022-09-15T08:15:37.373Z,21.40
2022-09-15T08:18:04.836Z,21.60
2022-09-15T08:20:31.784Z,21.70
2022-09-15T08:22:59.338Z,21.70
2022-09-15T08:25:26.145Z,21.90
2022-09-15T08:27:54.595Z,22.00
2022-09-15T08:30:22.288Z,22.10
2022-09-15T08:32:49.418Z,22.20
2022-09-15T08:35:17.696Z,22.40
2022-09-15T08:37:44.645Z,22.60
2022-09-15T08:40:22.292Z,22.50
2022-09-15T08:42:53.224Z,22.70
2022-09-15T08:45:35.575Z,23.00
2022-09-15T08:48:04.770Z,23.30
2022-09-15T08:50:42.259Z,23.50
2022-09-15T08:53:47.110Z,23.50
2022-09-15T08:56:18.321Z,23.50
2022-09-15T08:58:46.121Z,23.70
2022-09-15T09:01:18.995Z,23.90
2022-09-15T09:03:58.171Z,24.00
2022-09-15T09:06:43.111Z,24.20
2022-09-15T09:09:23.252Z,24.30
2022-09-15T09:11:59.013Z,24.50
2022-09-15T09:14:59.338Z,24.40
2022-09-15T09:17:41.527Z,24.20
2022-09-15T09:20:45.850Z,24.10
2022-09-15T09:23:16.999Z,24.00
2022-09-15T09:25:44.609Z,23.80
2022-09-15T09:28:26.407Z,23.70
2022-09-15T09:30:53.561Z,23.60
2022-09-15T09:33:30.360Z,23.50
2022-09-15T09:36:01.338Z,23.50
2022-09-15T09:38:36.764Z,23.50
2022-09-15T09:41:14.959Z,23.70
2022-09-15T09:43:43.810Z,23.80
2022-09-15T09:46:16.428Z,23.90
2022-09-15T09:49:23.424Z,23.90
2022-09-15T09:51:52.169Z,23.80
2022-09-15T09:54:21.420Z,23.60
2022-09-15T09:56:50.272Z,23.50
2022-09-15T09:59:40.130Z,23.50
2022-09-15T10:02:19.076Z,23.60
2022-09-15T10:04:47.239Z,23.50
2022-09-15T10:07:17.457Z,23.50
2022-09-15T10:09:58.816Z,23.40
2022-09-15T10:12:32.916Z,23.50
2022-09-15T10:15:05.253Z,23.50
2022-09-15T10:17:41.833Z,23.50
2022-09-15T10:20:51.144Z,23.60
2022-09-15T10:23:17.862Z,23.60
2022-09-15T10:26:01.358Z,23.80
2022-09-15T10:28:28.578Z,23.90
2022-09-15T10:31:28.663Z,24.00
2022-09-15T10:33:55.529Z,23.90
2022-09-15T10:36:32.179Z,23.70
2022-09-15T10:39:15.220Z,23.60
2022-09-15T10:42:17.411Z,23.40
2022-09-15T10:44:52.406Z,23.20
2022-09-15T10:47:50.000Z,23.10
2022-09-15T10:50:41.404Z,23.00
2022-09-15T10:53:19.272Z,23.10
2022-09-15T10:56:31.087Z,23.00
2022-09-15T10:59:32.430Z,23.00
2022-09-15T11:02:26.396Z,23.10
2022-09-15T11:04:59.263Z,23.10
2022-09-15T11:08:03.082Z,22.90
2022-09-15T11:10:35.355Z,22.90
2022-09-15T11:13:13.840Z,22.90
2022-09-15T11:15:43.841Z,22.80
2022-09-15T11:18:41.598Z,22.80
2022-09-15T11:21:11.335Z,22.80
2022-09-15T11:23:44.142Z,23.00
2022-09-15T11:26:17.036Z,23.00
2022-09-15T11:28:53.773Z,23.00
2022-09-15T11:31:24.363Z,23.10
2022-09-15T11:34:05.156Z,23.30
2022-09-15T11:36:49.301Z,23.40
2022-09-15T11:39:31.066Z,23.40
2022-09-15T11:42:09.434Z,23.60
2022-09-15T11:44:39.823Z,23.70
2022-09-15T11:47:36.433Z,23.90
2022-09-15T11:50:18.634Z,23.90
2022-09-15T11:53:00.659Z,23.80
2022-09-15T11:55:49.045Z,23.60
2022-09-15T11:58:29.461Z,23.20
2022-09-15T12:01:02.601Z,22.70
2022-09-15T12:03:32.671Z,22.60
2022-09-15T12:06:08.490Z,22.50
2022-09-15T12:09:00.864Z,22.50
2022-09-15T12:11:30.512Z,22.70
2022-09-15T12:13:59.746Z,22.80
2022-09-15T12:16:28.275Z,22.90
2022-09-15T12:19:03.168Z,23.00
2022-09-15T12:22:06.654Z,23.00
2022-09-15T12:25:01.098Z,23.00
2022-09-15T12:27:28.611Z,22.70
2022-09-15T12:29:59.861Z,22.30
2022-09-15T12:32:29.039Z,22.00
2022-09-15T12:35:16.177Z,21.90
2022-09-15T12:37:48.160Z,21.90
2022-09-15T12:40:29.890Z,21.90
2022-09-15T12:42:57.620Z,22.10
2022-09-15T12:45:36.260Z,22.20
2022-09-15T12:48:18.927Z,22.20
2022-09-15T12:50:54.821Z,22.30
2022-09-15T12:53:23.055Z,22.40
2022-09-15T12:56:02.349Z,22.40
2022-09-15T12:58:41.829Z,22.40
2022-09-15T13:01:23.739Z,22.20
2022-09-15T13:03:50.842Z,22.30
2022-09-15T13:06:25.021Z,22.30
2022-09-15T13:08:55.728Z,22.10
2022-09-15T13:11:37.457Z,22.20
2022-09-15T13:14:04.536Z,22.30
2022-09-15T13:16:37.034Z,22.40
2022-09-15T13:19:18.943Z,22.40
2022-09-15T13:21:58.421Z,22.40
2022-09-15T13:25:01.375Z,22.50
2022-09-15T13:27:42.024Z,22.40
2022-09-15T13:30:24.113Z,22.30
2022-09-15T13:33:16.903Z,22.20
2022-09-15T13:38:39.978Z,21.60
2022-09-15T13:41:28.286Z,21.40
2022-09-15T13:44:35.442Z,21.00
2022-09-15T13:47:11.211Z,20.80
2022-09-15T13:50:13.251Z,20.60
2022-09-15T13:53:01.580Z,20.40
2022-09-15T13:55:38.593Z,20.10
2022-09-15T14:01:02.193Z,19.40
2022-09-15T14:03:42.253Z,19.10
2022-09-15T14:06:20.569Z,18.70
2022-09-15T14:08:51.854Z,18.40
2022-09-15T14:11:27.991Z,18.20
2022-09-15T14:13:56.109Z,18.20
2022-09-15T14:16:29.068Z,18.10
2022-09-15T14:18:57.917Z,18.10
2022-09-15T14:21:30.888Z,18.20
2022-09-15T14:24:00.510Z,18.40
2022-09-15T14:26:29.504Z,18.40
2022-09-15T14:29:02.211Z,18.40
2022-09-15T14:31:43.301Z,18.40
2022-09-15T14:34:23.502Z,18.40
2022-09-15T14:37:07.597Z,18.50
2022-09-15T14:39:37.635Z,18.50
2022-09-15T14:42:29.654Z,18.60
2022-09-15T14:48:11.288Z,18.70
2022-09-15T14:50:38.014Z,18.70
2022-09-15T14:53:07.621Z,18.70
2022-09-15T14:55:40.423Z,18.50
2022-09-15T14:58:16.056Z,18.10
2022-09-15T15:01:00.301Z,17.80
2022-09-15T15:03:30.083Z,17.60
2022-09-15T15:06:12.763Z,17.30
2022-09-15T15:09:12.188Z,17.10
2022-09-15T15:11:41.807Z,16.90
2022-09-15T15:14:09.818Z,16.70
2022-09-15T15:16:36.990Z,16.60
2022-09-15T15:19:04.325Z,16.50
2022-09-15T15:21:43.664Z,16.50
2022-09-15T15:24:13.395Z,16.40
2022-09-15T15:26:42.235Z,16.30
2022-09-15T15:29:38.356Z,16.30
2022-09-15T15:32:16.374Z,16.30
2022-09-15T15:34:59.769Z,16.20
2022-09-15T15:37:32.517Z,16.20
2022-09-15T15:40:02.258Z,16.10
2022-09-15T15:42:29.511Z,16.10
2022-09-15T15:45:23.391Z,16.10
2022-09-15T15:47:50.250Z,16.10
2022-09-15T15:50:22.856Z,16.10
2022-09-15T15:52:50.249Z,16.10
2022-09-15T15:55:25.081Z,16.20
2022-09-15T15:57:54.169Z,16.20
2022-09-15T16:00:25.783Z,16.20
2022-09-15T16:02:53.222Z,16.20
2022-09-15T16:05:22.193Z,16.20
2022-09-15T16:07:51.143Z,16.20
2022-09-15T16:10:21.517Z,16.20
2022-09-15T16:12:48.303Z,16.20
2022-09-15T16:15:18.825Z,16.20
2022-09-15T16:17:47.128Z,16.30
2022-09-15T16:20:16.129Z,16.40
2022-09-15T16:22:43.418Z,16.40
2022-09-15T16:25:21.063Z,16.40
2022-09-15T16:27:47.811Z,16.50
2022-09-15T16:30:14.632Z,16.50
2022-09-15T16:32:41.351Z,16.50
2022-09-15T16:35:43.465Z,16.60
2022-09-15T16:38:10.265Z,16.50
2022-09-15T16:40:37.597Z,16.60
2022-09-15T16:43:08.814Z,16.60
2022-09-15T16:45:40.514Z,16.70
2022-09-15T16:48:08.864Z,16.60
2022-09-15T16:50:37.787Z,16.60
2022-09-15T16:53:06.760Z,16.60
2022-09-15T16:55:33.434Z,16.60
2022-09-15T16:58:00.176Z,16.50
2022-09-15T17:00:28.693Z,16.50
2022-09-15T17:02:55.534Z,16.50
2022-09-15T17:05:52.850Z,16.40
2022-09-15T17:08:27.035Z,16.30
2022-09-15T17:10:59.732Z,16.20
2022-09-15T17:13:30.332Z,16.20
2022-09-15T17:15:58.312Z,16.30
2022-09-15T17:18:25.834Z,16.30
2022-09-15T17:20:53.117Z,16.20
2022-09-15T17:23:31.532Z,16.30
2022-09-15T17:26:01.134Z,16.20
2022-09-15T17:28:30.271Z,16.20
2022-09-15T17:31:02.286Z,16.20
2022-09-15T17:33:31.122Z,16.10
2022-09-15T17:35:58.715Z,16.10
2022-09-15T17:38:25.641Z,16.10
2022-09-15T17:40:55.132Z,16.10
2022-09-15T17:43:25.614Z,16.00
2022-09-15T17:45:52.986Z,16.00
2022-09-15T17:48:20.435Z,16.00
2022-09-15T17:50:48.703Z,15.90
2022-09-15T17:53:26.666Z,15.90
2022-09-15T17:55:54.630Z,15.90
2022-09-15T17:58:22.462Z,16.00
2022-09-15T18:00:50.362Z,16.00
2022-09-15T18:03:29.595Z,16.00
2022-09-15T18:05:58.982Z,16.00
2022-09-15T18:08:26.731Z,15.90
2022-09-15T18:10:53.772Z,15.90
2022-09-15T18:13:23.496Z,15.90
2022-09-15T18:15:50.543Z,15.90
2022-09-15T18:18:20.105Z,15.90
2022-09-15T18:20:47.469Z,15.90
2022-09-15T18:23:17.080Z,15.90
2022-09-15T18:25:44.738Z,15.80
2022-09-15T18:28:11.564Z,15.80
2022-09-15T18:30:40.767Z,15.70
2022-09-15T18:33:22.162Z,15.60
2022-09-15T18:35:52.681Z,15.60
2022-09-15T18:38:20.610Z,15.60
2022-09-15T18:40:49.482Z,15.60
2022-09-15T18:43:17.127Z,15.50
2022-09-15T18:45:44.299Z,15.50
2022-09-15T18:48:13.112Z,15.50
2022-09-15T18:50:41.067Z,15.50
2022-09-15T18:53:07.921Z,15.40
2022-09-15T18:55:34.741Z,15.40
2022-09-15T18:58:02.684Z,15.50
2022-09-15T19:00:30.034Z,15.50
2022-09-15T19:03:02.351Z,15.50
2022-09-15T19:05:30.573Z,15.50
2022-09-15T19:07:57.727Z,15.40
2022-09-15T19:10:26.694Z,15.40
2022-09-15T19:12:54.273Z,15.40
2022-09-15T19:15:23.734Z,15.40
2022-09-15T19:17:50.822Z,15.30
2022-09-15T19:20:17.728Z,15.30
2022-09-15T19:22:44.430Z,15.30
2022-09-15T19:25:11.730Z,15.30
2022-09-15T19:27:39.482Z,15.20
2022-09-15T19:30:10.000Z,15.20
2022-09-15T19:32:37.739Z,15.20
2022-09-15T19:35:05.039Z,15.10
2022-09-15T19:37:31.716Z,15.20
2022-09-15T19:39:58.530Z,15.20
2022-09-15T19:42:25.289Z,15.10
2022-09-15T19:44:52.040Z,15.10
2022-09-15T19:47:18.817Z,15.10
2022-09-15T19:49:45.530Z,15.10
2022-09-15T19:52:12.898Z,15.10
2022-09-15T19:54:39.724Z,15.10
2022-09-15T19:57:06.520Z,15.00
2022-09-15T19:59:33.256Z,15.00
2022-09-15T20:02:01.419Z,15.00
2022-09-15T20:04:28.728Z,15.00
2022-09-15T20:06:55.450Z,15.00
2022-09-15T20:09:22.629Z,15.10
2022-09-15T20:11:49.522Z,15.10
2022-09-15T20:14:16.480Z,15.10
2022-09-15T20:16:43.247Z,15.10
2022-09-15T20:19:10.218Z,15.10
2022-09-15T20:21:49.842Z,15.10
2022-09-15T20:24:18.956Z,15.10
2022-09-15T20:26:45.679Z,15.00
2022-09-15T20:29:12.550Z,15.10
2022-09-15T20:31:39.356Z,15.00
2022-09-15T20:34:06.243Z,15.00
2022-09-15T20:36:36.429Z,15.00
2022-09-15T20:39:08.774Z,15.00
2022-09-15T20:41:35.724Z,15.00
2022-09-15T20:44:02.618Z,15.00
2022-09-15T20:46:31.250Z,15.00
2022-09-15T20:48:57.962Z,14.90
2022-09-15T20:51:27.936Z,14.90
2022-09-15T20:53:56.266Z,14.90
2022-09-15T20:56:25.622Z,14.90
2022-09-15T20:58:58.589Z,14.80
2022-09-15T21:01:33.544Z,14.80
2022-09-15T21:04:00.526Z,14.80
2022-09-15T21:06:28.453Z,14.80
2022-09-15T21:08:56.675Z,14.80
2022-09-15T21:11:26.161Z,14.80
2022-09-15T21:13:52.907Z,14.70
2022-09-15T21:16:22.666Z,14.70
2022-09-15T21:18:50.413Z,14.70
2022-09-15T21:21:23.113Z,14.70
2022-09-15T21:23:53.368Z,14.70
2022-09-15T21:26:25.562Z,14.60
2022-09-15T21:28:53.438Z,14.50
2022-09-15T21:31:23.370Z,14.40
2022-09-15T21:33:51.768Z,14.30
2022-09-15T21:36:22.131Z,14.30
2022-09-15T21:38:54.241Z,14.30
2022-09-15T21:41:23.595Z,14.30
2022-09-15T21:43:55.279Z,14.30
2022-09-15T21:46:24.479Z,14.30
2022-09-15T21:48:51.798Z,14.20
2022-09-15T21:51:24.568Z,14.20
2022-09-15T21:53:56.374Z,14.30
2022-09-15T21:56:23.791Z,14.30
2022-09-15T21:58:50.638Z,14.30
2022-09-15T22:01:20.235Z,14.30
2022-09-15T22:03:54.659Z,14.20
2022-09-15T22:06:27.515Z,14.30
2022-09-15T22:08:54.877Z,14.20
2022-09-15T22:11:22.092Z,14.10
2022-09-15T22:13:48.870Z,14.10
2022-09-15T22:16:18.284Z,14.10
2022-09-15T22:18:45.832Z,14.20
2022-09-15T22:21:18.271Z,14.20
2022-09-15T22:23:46.628Z,14.20
2022-09-15T22:26:16.095Z,14.20
2022-09-15T22:28:43.075Z,14.20
2022-09-15T22:31:12.125Z,14.20
2022-09-15T22:33:42.412Z,14.30
2022-09-15T22:36:17.524Z,14.40
2022-09-15T22:38:45.661Z,14.40
2022-09-15T22:41:15.206Z,14.40
2022-09-15T22:43:43.735Z,14.40
2022-09-15T22:46:11.189Z,14.50
2022-09-15T22:48:43.016Z,14.50
2022-09-15T22:51:10.734Z,14.50
2022-09-15T22:53:37.433Z,14.50
2022-09-15T22:56:08.153Z,14.50
2022-09-15T22:58:35.848Z,14.50
2022-09-15T23:01:11.319Z,14.60
2022-09-15T23:03:38.550Z,14.60
2022-09-15T23:06:06.119Z,14.60
2022-09-15T23:08:33.598Z,14.70
2022-09-15T23:11:06.247Z,14.80
2022-09-15T23:13:33.207Z,14.90
2022-09-15T23:15:59.990Z,14.90
2022-09-15T23:18:27.314Z,14.90
2022-09-15T23:21:07.285Z,14.90
2022-09-15T23:23:35.922Z,15.00
2022-09-15T23:26:04.298Z,15.00
2022-09-15T23:28:31.658Z,15.00
2022-09-15T23:30:59.569Z,15.00
2022-09-15T23:33:29.177Z,15.00
2022-09-15T23:35:58.153Z,15.00
2022-09-15T23:38:25.184Z,15.00
2022-09-15T23:40:51.874Z,15.00
2022-09-15T23:43:18.680Z,15.00
2022-09-15T23:45:46.023Z,15.00
2022-09-15T23:48:14.274Z,15.00
2022-09-15T23:50:41.315Z,15.00
2022-09-15T23:53:08.163Z,15.00
2022-09-15T23:55:35.659Z,15.00
2022-09-15T23:58:03.206Z,15.00
